createdAt,value
2022-07-25T00:00:40.007Z,13.21
2022-07-25T00:03:10.259Z,13.14
2022-07-25T00:05:39.297Z,13.22
2022-07-25T00:08:07.602Z,13.25
2022-07-25T00:10:35.692Z,13.21
2022-07-25T00:13:05.132Z,12.82
2022-07-25T00:15:34.003Z,13.21
2022-07-25T00:18:03.712Z,13.11
2022-07-25T00:20:31.929Z,13.00
2022-07-25T00:22:59.990Z,13.17
2022-07-25T00:25:27.990Z,13.14
2022-07-25T00:27:56.252Z,13.13
2022-07-25T00:30:24.684Z,12.80
2022-07-25T00:32:53.275Z,13.05
2022-07-25T00:35:21.798Z,13.01
2022-07-25T00:37:49.863Z,12.97
2022-07-25T00:40:18.034Z,13.02
2022-07-25T00:42:46.144Z,13.01
2022-07-25T00:45:14.452Z,12.96
2022-07-25T00:47:42.599Z,12.88
2022-07-25T00:50:10.983Z,12.87
2022-07-25T00:52:39.154Z,12.79
2022-07-25T00:55:07.922Z,12.59
2022-07-25T00:57:35.920Z,12.72
2022-07-25T01:00:08.981Z,12.51
2022-07-25T01:02:37.395Z,12.75
2022-07-25T01:05:07.344Z,12.73
2022-07-25T01:07:39.801Z,12.49
2022-07-25T01:10:08.958Z,12.69
2022-07-25T01:12:54.335Z,12.72
2022-07-25T01:15:24.479Z,12.45
2022-07-25T01:17:52.853Z,12.69
2022-07-25T01:20:26.959Z,12.71
2022-07-25T01:22:56.216Z,12.69
2022-07-25T01:25:25.142Z,12.62
2022-07-25T01:27:55.995Z,12.56
2022-07-25T01:30:25.436Z,12.42
2022-07-25T01:32:53.981Z,12.60
2022-07-25T01:35:22.428Z,12.47
2022-07-25T01:37:50.653Z,12.49
2022-07-25T01:40:18.819Z,12.48
2022-07-25T01:42:47.039Z,12.38
2022-07-25T01:45:15.427Z,12.49
2022-07-25T01:47:43.450Z,12.47
2022-07-25T01:50:11.815Z,12.43
2022-07-25T01:52:40.585Z,12.40
2022-07-25T01:55:09.168Z,12.41
2022-07-25T01:57:38.240Z,12.39
2022-07-25T02:00:14.662Z,12.28
2022-07-25T02:02:46.938Z,12.25
2022-07-25T02:05:16.365Z,11.92
2022-07-25T02:07:44.359Z,12.11
2022-07-25T02:10:12.549Z,11.97
2022-07-25T02:12:40.816Z,11.93
2022-07-25T02:15:09.422Z,11.64
2022-07-25T02:17:37.731Z,11.99
2022-07-25T02:20:07.324Z,11.73
2022-07-25T02:22:35.490Z,12.04
2022-07-25T02:25:03.822Z,11.85
2022-07-25T02:27:32.192Z,11.64
2022-07-25T02:30:00.222Z,11.97
2022-07-25T02:32:28.400Z,11.91
2022-07-25T02:34:58.530Z,11.91
2022-07-25T02:37:26.545Z,11.90
2022-07-25T02:39:54.705Z,11.64
2022-07-25T02:42:23.178Z,11.60
2022-07-25T02:44:51.582Z,11.83
2022-07-25T02:47:19.759Z,11.53
2022-07-25T02:49:47.885Z,11.77
2022-07-25T02:52:15.971Z,11.77
2022-07-25T02:54:44.000Z,11.75
2022-07-25T02:57:12.046Z,11.40
2022-07-25T02:59:40.025Z,11.64
2022-07-25T03:02:08.100Z,11.66
2022-07-25T03:04:36.221Z,11.39
2022-07-25T03:07:04.582Z,11.60
2022-07-25T03:09:32.763Z,11.65
2022-07-25T03:12:00.731Z,11.67
2022-07-25T03:14:28.822Z,11.64
2022-07-25T03:16:57.029Z,11.64
2022-07-25T03:19:25.304Z,11.73
2022-07-25T03:21:53.213Z,11.73
2022-07-25T03:24:21.598Z,11.82
2022-07-25T03:26:49.783Z,11.87
2022-07-25T03:29:17.892Z,11.65
2022-07-25T03:31:46.611Z,11.87
2022-07-25T03:34:15.014Z,11.85
2022-07-25T03:36:43.076Z,11.88
2022-07-25T03:39:11.409Z,11.97
2022-07-25T03:41:39.640Z,12.01
2022-07-25T03:44:08.420Z,12.13
2022-07-25T03:46:36.792Z,12.19
2022-07-25T03:49:05.664Z,12.13
2022-07-25T03:51:33.785Z,12.34
2022-07-25T03:54:02.193Z,12.21
2022-07-25T03:56:31.610Z,12.49
2022-07-25T03:58:59.652Z,12.38
2022-07-25T04:01:28.034Z,12.53
2022-07-25T04:03:56.277Z,12.63
2022-07-25T04:06:24.778Z,12.84
2022-07-25T04:08:54.491Z,12.87
2022-07-25T04:11:23.115Z,12.83
2022-07-25T04:13:52.053Z,13.13
2022-07-25T04:16:22.723Z,13.25
2022-07-25T04:18:52.117Z,13.26
2022-07-25T04:21:20.364Z,13.38
2022-07-25T04:23:49.861Z,13.52
2022-07-25T04:26:18.982Z,13.73
2022-07-25T04:28:47.187Z,13.98
2022-07-25T04:31:15.830Z,14.22
2022-07-25T04:33:44.358Z,14.30
2022-07-25T04:36:12.847Z,14.91
2022-07-25T04:38:41.250Z,15.08
2022-07-25T04:41:09.237Z,15.66
2022-07-25T04:43:37.338Z,15.97
2022-07-25T04:46:06.074Z,16.15
2022-07-25T04:48:34.444Z,16.30
2022-07-25T04:51:02.401Z,16.33
2022-07-25T04:53:30.822Z,16.99
2022-07-25T04:55:58.917Z,17.35
2022-07-25T04:58:26.910Z,17.62
2022-07-25T05:00:55.306Z,17.89
2022-07-25T05:03:23.401Z,18.24
2022-07-25T05:05:52.055Z,18.29
2022-07-25T05:08:20.439Z,18.34
2022-07-25T05:10:48.696Z,18.41
2022-07-25T05:13:16.718Z,19.12
2022-07-25T05:15:44.845Z,19.25
2022-07-25T05:18:13.013Z,19.16
2022-07-25T05:20:41.446Z,19.45
2022-07-25T05:23:09.547Z,19.59
2022-07-25T05:25:37.615Z,19.13
2022-07-25T05:28:05.796Z,19.79
2022-07-25T05:30:39.346Z,20.04
2022-07-25T05:33:08.724Z,20.40
2022-07-25T05:35:37.088Z,20.34
2022-07-25T05:38:05.721Z,20.27
2022-07-25T05:40:33.770Z,20.49
2022-07-25T05:43:03.549Z,20.85
2022-07-25T05:45:32.292Z,21.11
2022-07-25T05:48:00.573Z,20.88
2022-07-25T05:50:28.691Z,21.28
2022-07-25T05:52:56.991Z,21.52
2022-07-25T05:55:25.011Z,21.72
2022-07-25T05:57:53.207Z,21.86
2022-07-25T06:00:21.245Z,22.02
2022-07-25T06:02:49.568Z,22.27
2022-07-25T06:05:17.893Z,22.53
2022-07-25T06:07:46.682Z,22.44
2022-07-25T06:10:14.788Z,22.28
2022-07-25T06:12:42.738Z,22.43
2022-07-25T06:15:12.625Z,22.47
2022-07-25T06:17:51.567Z,22.48
2022-07-25T06:20:19.729Z,22.94
2022-07-25T06:22:47.809Z,23.03
2022-07-25T06:25:16.211Z,23.33
2022-07-25T06:27:44.251Z,23.42
2022-07-25T06:30:19.574Z,23.37
2022-07-25T06:32:50.372Z,23.49
2022-07-25T06:35:19.790Z,24.01
2022-07-25T06:37:48.088Z,24.23
2022-07-25T06:40:16.604Z,24.01
2022-07-25T06:42:47.162Z,24.35
2022-07-25T06:45:15.774Z,24.26
2022-07-25T06:47:45.386Z,24.59
2022-07-25T06:50:18.742Z,24.64
2022-07-25T06:52:51.105Z,23.92
2022-07-25T06:55:19.151Z,24.26
2022-07-25T06:57:47.373Z,24.45
2022-07-25T07:00:16.103Z,24.30
2022-07-25T07:03:01.692Z,24.57
2022-07-25T07:05:34.771Z,24.76
2022-07-25T07:08:03.969Z,24.88
2022-07-25T07:10:32.333Z,25.44
2022-07-25T07:13:13.135Z,25.05
2022-07-25T07:15:46.677Z,25.03
2022-07-25T07:18:15.074Z,25.52
2022-07-25T07:20:43.852Z,25.76
2022-07-25T07:23:12.308Z,25.84
2022-07-25T07:25:47.394Z,25.07
2022-07-25T07:28:16.275Z,25.43
2022-07-25T07:31:14.692Z,25.78
2022-07-25T07:33:33.829Z,25.78
2022-07-25T07:36:02.628Z,24.95
2022-07-25T07:38:30.628Z,25.17
2022-07-25T07:40:59.197Z,24.91
2022-07-25T07:43:29.943Z,24.80
2022-07-25T07:46:01.550Z,24.19
2022-07-25T07:48:31.125Z,24.03
2022-07-25T07:51:01.339Z,24.04
2022-07-25T07:53:48.470Z,24.48
2022-07-25T07:56:19.216Z,25.56
2022-07-25T07:58:47.621Z,26.42
2022-07-25T08:01:16.075Z,27.19
2022-07-25T08:03:44.495Z,27.74
2022-07-25T08:06:12.574Z,28.26
2022-07-25T08:08:41.196Z,28.94
2022-07-25T08:11:09.484Z,28.22
2022-07-25T08:13:38.386Z,29.06
2022-07-25T08:16:07.301Z,29.51
2022-07-25T08:18:35.657Z,28.96
2022-07-25T08:21:06.557Z,28.62
2022-07-25T08:23:38.528Z,28.17
2022-07-25T08:26:06.899Z,27.74
2022-07-25T08:28:34.981Z,27.87
2022-07-25T08:31:05.902Z,27.37
2022-07-25T08:33:34.217Z,27.11
2022-07-25T08:36:02.405Z,28.19
2022-07-25T08:38:30.495Z,28.84
2022-07-25T08:41:00.042Z,29.56
2022-07-25T08:43:33.772Z,29.97
2022-07-25T08:46:02.782Z,30.25
2022-07-25T08:48:31.405Z,29.64
2022-07-25T08:51:00.812Z,29.38
2022-07-25T08:53:33.244Z,29.65
2022-07-25T08:56:11.164Z,29.87
2022-07-25T08:58:41.601Z,30.16
2022-07-25T09:01:10.133Z,29.85
2022-07-25T09:03:38.779Z,30.31
2022-07-25T09:06:22.208Z,29.16
2022-07-25T09:08:57.084Z,27.95
2022-07-25T09:11:34.572Z,28.35
2022-07-25T09:14:14.749Z,28.06
2022-07-25T09:16:45.996Z,27.23
2022-07-25T09:19:20.982Z,27.64
2022-07-25T09:22:07.001Z,27.42
2022-07-25T09:24:47.100Z,27.16
2022-07-25T09:27:15.721Z,26.93
2022-07-25T09:29:44.809Z,26.61
2022-07-25T09:32:20.605Z,27.02
2022-07-25T09:34:51.042Z,27.66
2022-07-25T09:37:26.030Z,28.58
2022-07-25T09:39:54.473Z,29.42
2022-07-25T09:42:32.587Z,29.43
2022-07-25T09:45:15.039Z,29.95
2022-07-25T09:47:56.655Z,30.06
2022-07-25T09:50:29.014Z,29.30
2022-07-25T09:53:00.961Z,29.66
2022-07-25T09:55:30.728Z,29.19
2022-07-25T09:57:58.952Z,29.45
2022-07-25T10:00:29.647Z,29.29
2022-07-25T10:03:24.680Z,29.59
2022-07-25T10:06:06.146Z,30.53
2022-07-25T10:08:40.486Z,29.75
2022-07-25T10:11:30.411Z,29.69
2022-07-25T10:14:12.676Z,29.08
2022-07-25T10:16:48.862Z,28.77
2022-07-25T10:19:35.277Z,28.63
2022-07-25T10:22:05.718Z,28.66
2022-07-25T10:24:36.107Z,28.40
2022-07-25T10:27:14.624Z,28.29
2022-07-25T10:29:43.111Z,28.21
2022-07-25T10:32:14.709Z,28.43
2022-07-25T10:34:55.428Z,28.82
2022-07-25T10:37:29.805Z,29.30
2022-07-25T10:39:57.942Z,29.11
2022-07-25T10:42:27.204Z,29.33
2022-07-25T10:44:59.317Z,29.94
2022-07-25T10:47:28.749Z,29.67
2022-07-25T10:50:25.179Z,30.40
2022-07-25T10:53:01.877Z,30.60
2022-07-25T10:55:30.380Z,31.24
2022-07-25T10:58:21.650Z,31.66
2022-07-25T11:00:51.583Z,32.11
2022-07-25T11:03:22.203Z,32.70
2022-07-25T11:05:52.037Z,31.97
2022-07-25T11:08:30.195Z,31.12
2022-07-25T11:10:59.078Z,30.92
2022-07-25T11:13:27.226Z,30.83
2022-07-25T11:15:59.205Z,31.21
2022-07-25T11:18:42.805Z,30.13
2022-07-25T11:21:11.323Z,29.53
2022-07-25T11:23:41.130Z,30.55
2022-07-25T11:26:15.106Z,31.05
2022-07-25T11:28:49.646Z,31.44
2022-07-25T11:31:22.954Z,31.49
2022-07-25T11:33:51.195Z,31.80
2022-07-25T11:36:19.527Z,31.72
2022-07-25T11:38:51.089Z,32.15
2022-07-25T11:41:30.546Z,32.91
2022-07-25T11:43:58.749Z,32.52
2022-07-25T11:46:26.759Z,33.03
2022-07-25T11:49:06.792Z,33.08
2022-07-25T11:51:39.259Z,33.45
2022-07-25T11:54:12.036Z,33.32
2022-07-25T11:56:43.076Z,32.60
2022-07-25T11:59:12.186Z,32.43
2022-07-25T12:01:45.254Z,32.27
2022-07-25T12:04:19.225Z,32.70
2022-07-25T12:06:50.499Z,33.33
2022-07-25T12:09:22.135Z,32.38
2022-07-25T12:11:50.606Z,32.74
2022-07-25T12:14:18.792Z,32.03
2022-07-25T12:16:47.222Z,30.34
2022-07-25T12:19:21.901Z,29.85
2022-07-25T12:21:50.048Z,30.81
2022-07-25T12:24:18.112Z,32.14
2022-07-25T12:26:46.270Z,31.95
2022-07-25T12:29:14.548Z,32.03
2022-07-25T12:31:42.831Z,32.34
2022-07-25T12:34:10.889Z,32.69
2022-07-25T12:36:44.185Z,31.71
2022-07-25T12:39:12.769Z,31.27
2022-07-25T12:41:42.931Z,31.13
2022-07-25T12:44:11.471Z,30.85
2022-07-25T12:46:45.861Z,30.56
2022-07-25T12:49:17.426Z,31.21
2022-07-25T12:51:45.915Z,30.97
2022-07-25T12:54:21.663Z,31.64
2022-07-25T12:56:51.295Z,32.42
2022-07-25T12:59:19.478Z,31.49
2022-07-25T13:01:47.995Z,31.48
2022-07-25T13:04:16.500Z,31.06
2022-07-25T13:06:44.523Z,31.58
2022-07-25T13:09:12.687Z,32.45
2022-07-25T13:11:42.574Z,32.71
2022-07-25T13:14:10.688Z,33.13
2022-07-25T13:16:41.344Z,33.10
2022-07-25T13:19:10.306Z,33.55
2022-07-25T13:21:39.338Z,34.01
2022-07-25T13:24:08.101Z,34.20
2022-07-25T13:26:38.309Z,33.26
2022-07-25T13:29:09.602Z,33.91
2022-07-25T13:31:42.325Z,34.28
2022-07-25T13:34:10.999Z,34.64
2022-07-25T13:36:40.688Z,34.32
2022-07-25T13:39:09.581Z,33.94
2022-07-25T13:41:37.918Z,33.35
2022-07-25T13:44:06.187Z,33.58
2022-07-25T13:46:35.836Z,33.46
2022-07-25T13:49:04.386Z,33.71
2022-07-25T13:51:32.979Z,32.83
2022-07-25T13:54:01.084Z,33.50
2022-07-25T13:56:29.466Z,33.12
2022-07-25T13:58:57.476Z,32.64
2022-07-25T14:01:28.778Z,33.64
2022-07-25T14:03:57.564Z,33.95
2022-07-25T14:06:25.505Z,34.64
2022-07-25T14:08:53.748Z,34.58
2022-07-25T14:11:24.886Z,34.27
2022-07-25T14:13:57.512Z,33.93
2022-07-25T14:16:25.682Z,34.60
2022-07-25T14:18:55.150Z,33.14
2022-07-25T14:21:23.946Z,32.92
2022-07-25T14:23:53.919Z,32.14
2022-07-25T14:26:22.155Z,32.42
2022-07-25T14:28:50.419Z,31.89
2022-07-25T14:31:18.725Z,33.04
2022-07-25T14:33:47.767Z,32.26
2022-07-25T14:36:15.884Z,32.32
2022-07-25T14:38:44.515Z,32.14
2022-07-25T14:41:13.376Z,32.29
2022-07-25T14:43:42.492Z,32.35
2022-07-25T14:46:10.912Z,32.25
2022-07-25T14:48:39.408Z,32.46
2022-07-25T14:51:08.088Z,32.77
2022-07-25T14:53:37.203Z,33.41
2022-07-25T14:56:06.928Z,33.38
2022-07-25T14:58:35.679Z,33.45
2022-07-25T15:01:04.559Z,33.90
2022-07-25T15:03:32.934Z,33.57
2022-07-25T15:06:02.238Z,34.46
2022-07-25T15:08:30.502Z,34.26
2022-07-25T15:10:58.738Z,34.49
2022-07-25T15:13:31.807Z,34.41
2022-07-25T15:16:01.961Z,33.63
2022-07-25T15:18:30.498Z,33.91
2022-07-25T15:20:59.674Z,33.15
2022-07-25T15:23:30.600Z,33.52
2022-07-25T15:26:02.619Z,33.09
2022-07-25T15:28:34.772Z,33.60
2022-07-25T15:31:03.779Z,33.50
2022-07-25T15:33:32.675Z,33.93
2022-07-25T15:36:00.775Z,33.33
2022-07-25T15:38:29.418Z,33.09
2022-07-25T15:40:59.066Z,33.26
2022-07-25T15:43:27.669Z,32.97
2022-07-25T15:45:55.868Z,33.19
2022-07-25T15:48:24.164Z,33.67
2022-07-25T15:50:58.338Z,33.76
2022-07-25T15:53:26.747Z,33.34
2022-07-25T15:55:55.228Z,32.71
2022-07-25T15:58:24.443Z,32.42
2022-07-25T16:00:52.916Z,32.98
2022-07-25T16:03:21.937Z,33.24
2022-07-25T16:05:50.500Z,32.93
2022-07-25T16:08:18.865Z,32.88
2022-07-25T16:10:46.977Z,33.02
2022-07-25T16:13:15.235Z,32.50
2022-07-25T16:15:43.307Z,32.56
2022-07-25T16:18:11.505Z,33.11
2022-07-25T16:20:39.706Z,32.43
2022-07-25T16:23:08.001Z,33.03
2022-07-25T16:25:36.182Z,32.60
2022-07-25T16:28:05.651Z,32.61
2022-07-25T16:30:33.769Z,32.89
2022-07-25T16:33:01.886Z,32.96
2022-07-25T16:35:32.913Z,32.87
2022-07-25T16:38:01.302Z,32.73
2022-07-25T16:40:30.854Z,32.60
2022-07-25T16:43:00.067Z,32.85
2022-07-25T16:45:28.993Z,33.23
2022-07-25T16:47:57.468Z,33.33
2022-07-25T16:50:50.303Z,33.26
2022-07-25T16:53:21.591Z,33.45
2022-07-25T16:55:49.948Z,33.59
2022-07-25T16:58:18.176Z,33.82
2022-07-25T17:00:46.266Z,34.10
2022-07-25T17:03:14.755Z,34.36
2022-07-25T17:05:42.960Z,34.17
2022-07-25T17:08:11.557Z,34.19
2022-07-25T17:10:40.754Z,34.40
2022-07-25T17:13:09.039Z,34.10
2022-07-25T17:15:37.802Z,34.10
2022-07-25T17:18:06.248Z,34.02
2022-07-25T17:20:34.851Z,33.66
2022-07-25T17:23:02.937Z,33.88
2022-07-25T17:25:32.328Z,33.49
2022-07-25T17:28:00.860Z,33.77
2022-07-25T17:30:29.105Z,33.61
2022-07-25T17:32:58.713Z,33.33
2022-07-25T17:35:27.544Z,33.00
2022-07-25T17:37:55.758Z,33.14
2022-07-25T17:40:24.073Z,32.53
2022-07-25T17:42:52.527Z,31.62
2022-07-25T17:45:21.014Z,31.77
2022-07-25T17:47:49.529Z,31.43
2022-07-25T17:50:18.011Z,31.21
2022-07-25T17:52:46.283Z,30.59
2022-07-25T17:55:14.641Z,29.85
2022-07-25T17:57:43.656Z,29.52
2022-07-25T18:00:13.825Z,29.52
2022-07-25T18:02:42.386Z,29.21
2022-07-25T18:05:11.088Z,28.89
2022-07-25T18:07:45.783Z,28.70
2022-07-25T18:10:15.171Z,28.28
2022-07-25T18:12:43.549Z,27.95
2022-07-25T18:15:12.656Z,28.11
2022-07-25T18:17:43.936Z,27.47
2022-07-25T18:20:14.343Z,26.25
2022-07-25T18:22:42.901Z,25.66
2022-07-25T18:25:13.419Z,25.83
2022-07-25T18:27:46.757Z,25.39
2022-07-25T18:30:16.216Z,25.05
2022-07-25T18:32:45.561Z,24.40
2022-07-25T18:35:15.134Z,23.92
2022-07-25T18:37:43.951Z,23.74
2022-07-25T18:40:13.642Z,23.09
2022-07-25T18:42:41.796Z,23.18
2022-07-25T18:45:12.357Z,23.16
2022-07-25T18:47:40.944Z,23.19
2022-07-25T18:50:10.184Z,23.21
2022-07-25T18:52:38.767Z,23.07
2022-07-25T18:55:09.472Z,23.07
2022-07-25T18:57:37.609Z,22.72
2022-07-25T19:01:46.896Z,22.43
2022-07-25T19:04:41.060Z,22.24
2022-07-25T19:07:10.229Z,22.19
2022-07-25T19:09:38.237Z,22.10
2022-07-25T19:12:06.969Z,21.95
2022-07-25T19:14:34.979Z,21.58
2022-07-25T19:17:04.099Z,21.52
2022-07-25T19:19:33.092Z,21.45
2022-07-25T19:22:01.440Z,21.44
2022-07-25T19:24:30.183Z,21.46
2022-07-25T19:26:59.392Z,21.53
2022-07-25T19:29:27.526Z,21.28
2022-07-25T19:31:56.036Z,21.25
2022-07-25T19:34:24.340Z,21.15
2022-07-25T19:36:52.945Z,21.45
2022-07-25T19:39:21.122Z,21.44
2022-07-25T19:41:51.139Z,21.29
2022-07-25T19:44:19.474Z,21.20
2022-07-25T19:46:49.187Z,21.07
2022-07-25T19:49:17.895Z,21.05
2022-07-25T19:51:45.954Z,20.97
2022-07-25T19:54:14.566Z,20.90
2022-07-25T19:56:46.033Z,20.88
2022-07-25T19:59:14.218Z,20.50
2022-07-25T20:01:43.382Z,20.76
2022-07-25T20:04:11.869Z,20.69
2022-07-25T20:06:40.550Z,20.48
2022-07-25T20:09:10.000Z,20.40
2022-07-25T20:11:39.352Z,20.33
2022-07-25T20:14:08.250Z,20.47
2022-07-25T20:16:37.910Z,20.12
2022-07-25T20:19:09.024Z,20.38
2022-07-25T20:21:38.811Z,20.27
2022-07-25T20:24:07.866Z,20.26
2022-07-25T20:26:36.615Z,19.92
2022-07-25T20:29:05.577Z,19.86
2022-07-25T20:31:36.161Z,20.10
2022-07-25T20:34:04.527Z,20.07
2022-07-25T20:36:32.526Z,20.05
2022-07-25T20:39:00.713Z,19.67
2022-07-25T20:41:29.530Z,19.83
2022-07-25T20:43:57.838Z,19.57
2022-07-25T20:46:26.061Z,19.68
2022-07-25T20:48:54.227Z,19.70
2022-07-25T20:51:22.412Z,19.60
2022-07-25T20:53:51.642Z,19.51
2022-07-25T20:56:22.264Z,18.97
2022-07-25T20:58:50.533Z,19.28
2022-07-25T21:01:19.103Z,19.16
2022-07-25T21:03:47.474Z,18.67
2022-07-25T21:06:16.157Z,18.89
2022-07-25T21:08:44.266Z,18.89
2022-07-25T21:11:12.687Z,19.09
2022-07-25T21:13:41.120Z,19.14
2022-07-25T21:16:09.686Z,19.17
2022-07-25T21:18:37.824Z,19.13
2022-07-25T21:21:11.726Z,19.02
2022-07-25T21:23:42.083Z,18.80
2022-07-25T21:26:10.346Z,19.07
2022-07-25T21:28:38.352Z,18.73
2022-07-25T21:31:06.564Z,18.94
2022-07-25T21:33:34.777Z,18.85
2022-07-25T21:36:04.405Z,18.73
2022-07-25T21:38:34.928Z,18.70
2022-07-25T21:41:03.384Z,18.60
2022-07-25T21:43:31.786Z,18.49
2022-07-25T21:46:00.272Z,18.11
2022-07-25T21:48:47.435Z,18.43
2022-07-25T21:51:19.324Z,18.42
2022-07-25T21:53:54.481Z,18.33
2022-07-25T21:56:22.914Z,18.30
2022-07-25T21:58:50.907Z,18.27
2022-07-25T22:01:20.934Z,18.02
2022-07-25T22:03:49.477Z,18.22
2022-07-25T22:06:19.301Z,17.95
2022-07-25T22:08:48.105Z,18.05
2022-07-25T22:11:38.583Z,18.06
2022-07-25T22:14:05.296Z,18.05
2022-07-25T22:16:33.569Z,18.03
2022-07-25T22:19:02.402Z,17.95
2022-07-25T22:21:30.713Z,17.89
2022-07-25T22:23:59.026Z,17.76
2022-07-25T22:26:27.163Z,17.87
2022-07-25T22:28:56.108Z,17.83
2022-07-25T22:31:24.540Z,17.44
2022-07-25T22:33:53.216Z,17.79
2022-07-25T22:36:21.597Z,17.76
2022-07-25T22:38:50.689Z,17.77
2022-07-25T22:41:18.750Z,17.74
2022-07-25T22:43:58.394Z,17.67
2022-07-25T22:46:31.674Z,17.62
2022-07-25T22:49:00.637Z,17.66
2022-07-25T22:51:29.792Z,17.67
2022-07-25T22:53:58.998Z,17.57
2022-07-25T22:56:28.556Z,17.51
2022-07-25T22:58:57.367Z,17.73
2022-07-25T23:01:26.244Z,17.63
2022-07-25T23:03:54.677Z,17.61
2022-07-25T23:06:23.270Z,17.53
2022-07-25T23:08:51.971Z,17.20
2022-07-25T23:11:20.768Z,17.40
2022-07-25T23:13:48.911Z,17.36
2022-07-25T23:16:17.150Z,17.15
2022-07-25T23:18:45.582Z,17.20
2022-07-25T23:21:13.773Z,16.87
2022-07-25T23:23:42.599Z,17.04
2022-07-25T23:26:11.062Z,17.13
2022-07-25T23:28:39.260Z,17.03
2022-07-25T23:31:08.585Z,17.00
2022-07-25T23:33:36.865Z,16.53
2022-07-25T23:36:05.525Z,16.86
2022-07-25T23:38:33.591Z,16.66
2022-07-25T23:41:01.929Z,16.82
2022-07-25T23:43:59.597Z,16.82
2022-07-25T23:46:18.548Z,16.78
2022-07-25T23:48:50.440Z,16.73
2022-07-25T23:51:19.081Z,16.73
2022-07-25T23:53:47.505Z,16.69
2022-07-25T23:56:20.595Z,16.55
2022-07-25T23:58:50.354Z,16.54
